sensor_id;sensor_type;location;lat;lon;timestamp;P1;durP1;ratioP1;P2;durP2;ratioP2
2129;SDS011;1071;52.544;13.374;2023-02-28T00:00:36;7.28;;;3.92;;
2129;SDS011;1071;52.544;13.374;2023-02-28T00:03:05;8.48;;;4.00;;
2129;SDS011;1071;52.544;13.374;2023-02-28T00:05:33;8.35;;;4.50;;
2129;SDS011;1071;52.544;13.374;2023-02-28T00:08:00;3.90;;;3.35;;
2129;SDS011;1071;52.544;13.374;2023-02-28T00:10:29;4.82;;;3.60;;
2129;SDS011;1071;52.544;13.374;2023-02-28T00:12:59;3.88;;;3.00;;
2129;SDS011;1071;52.544;13.374;2023-02-28T00:15:29;4.70;;;3.75;;
2129;SDS011;1071;52.544;13.374;2023-02-28T00:17:56;4.82;;;4.32;;
2129;SDS011;1071;52.544;13.374;2023-02-28T00:20:24;4.72;;;3.22;;
2129;SDS011;1071;52.544;13.374;2023-02-28T00:22:52;3.70;;;3.33;;
2129;SDS011;1071;52.544;13.374;2023-02-28T00:25:21;5.22;;;3.80;;
2129;SDS011;1071;52.544;13.374;2023-02-28T00:27:49;8.43;;;4.53;;
2129;SDS011;1071;52.544;13.374;2023-02-28T00:30:17;4.45;;;3.70;;
2129;SDS011;1071;52.544;13.374;2023-02-28T00:32:45;4.45;;;4.05;;
2129;SDS011;1071;52.544;13.374;2023-02-28T00:35:14;4.05;;;3.20;;
2129;SDS011;1071;52.544;13.374;2023-02-28T00:37:42;4.68;;;4.13;;
2129;SDS011;1071;52.544;13.374;2023-02-28T00:40:10;5.65;;;3.80;;
2129;SDS011;1071;52.544;13.374;2023-02-28T00:42:38;5.40;;;3.50;;
2129;SDS011;1071;52.544;13.374;2023-02-28T00:45:05;5.05;;;3.20;;
2129;SDS011;1071;52.544;13.374;2023-02-28T00:47:34;4.88;;;3.50;;
2129;SDS011;1071;52.544;13.374;2023-02-28T00:50:01;3.80;;;3.05;;
2129;SDS011;1071;52.544;13.374;2023-02-28T00:52:29;4.97;;;3.40;;
2129;SDS011;1071;52.544;13.374;2023-02-28T00:54:57;3.25;;;2.90;;
2129;SDS011;1071;52.544;13.374;2023-02-28T00:57:24;4.22;;;3.80;;
2129;SDS011;1071;52.544;13.374;2023-02-28T00:59:52;6.05;;;3.55;;
2129;SDS011;1071;52.544;13.374;2023-02-28T01:02:20;4.28;;;3.75;;
2129;SDS011;1071;52.544;13.374;2023-02-28T01:04:48;4.32;;;3.30;;
2129;SDS011;1071;52.544;13.374;2023-02-28T01:07:15;6.18;;;3.50;;
2129;SDS011;1071;52.544;13.374;2023-02-28T01:09:42;5.40;;;3.83;;
2129;SDS011;1071;52.544;13.374;2023-02-28T01:12:11;3.58;;;3.30;;
2129;SDS011;1071;52.544;13.374;2023-02-28T01:14:48;3.40;;;3.10;;
2129;SDS011;1071;52.544;13.374;2023-02-28T01:17:15;5.55;;;3.70;;
2129;SDS011;1071;52.544;13.374;2023-02-28T01:19:42;7.25;;;3.95;;
2129;SDS011;1071;52.544;13.374;2023-02-28T01:22:09;5.43;;;3.85;;
2129;SDS011;1071;52.544;13.374;2023-02-28T01:24:37;4.00;;;3.58;;
2129;SDS011;1071;52.544;13.374;2023-02-28T01:27:04;3.80;;;3.38;;
2129;SDS011;1071;52.544;13.374;2023-02-28T01:29:32;3.90;;;3.50;;
2129;SDS011;1071;52.544;13.374;2023-02-28T01:31:59;3.80;;;3.28;;
2129;SDS011;1071;52.544;13.374;2023-02-28T01:34:26;4.22;;;3.15;;
2129;SDS011;1071;52.544;13.374;2023-02-28T01:36:53;4.90;;;3.80;;
2129;SDS011;1071;52.544;13.374;2023-02-28T01:39:20;5.47;;;3.95;;
2129;SDS011;1071;52.544;13.374;2023-02-28T01:41:48;4.18;;;3.85;;
2129;SDS011;1071;52.544;13.374;2023-02-28T01:47:21;3.85;;;3.00;;
2129;SDS011;1071;52.544;13.374;2023-02-28T01:49:49;7.85;;;3.60;;
2129;SDS011;1071;52.544;13.374;2023-02-28T01:52:17;6.22;;;4.70;;
2129;SDS011;1071;52.544;13.374;2023-02-28T01:54:47;6.78;;;4.03;;
2129;SDS011;1071;52.544;13.374;2023-02-28T01:57:19;5.70;;;4.05;;
2129;SDS011;1071;52.544;13.374;2023-02-28T01:59:50;7.43;;;3.60;;
2129;SDS011;1071;52.544;13.374;2023-02-28T02:02:22;6.68;;;4.85;;
2129;SDS011;1071;52.544;13.374;2023-02-28T02:04:51;4.50;;;4.10;;
2129;SDS011;1071;52.544;13.374;2023-02-28T02:07:21;7.60;;;4.80;;
2129;SDS011;1071;52.544;13.374;2023-02-28T02:09:49;8.02;;;4.50;;
2129;SDS011;1071;52.544;13.374;2023-02-28T02:12:25;6.03;;;4.90;;
2129;SDS011;1071;52.544;13.374;2023-02-28T02:15:01;6.03;;;4.63;;
2129;SDS011;1071;52.544;13.374;2023-02-28T02:17:35;6.18;;;4.07;;
2129;SDS011;1071;52.544;13.374;2023-02-28T02:20:16;4.88;;;4.40;;
2129;SDS011;1071;52.544;13.374;2023-02-28T02:26:10;5.95;;;4.50;;
2129;SDS011;1071;52.544;13.374;2023-02-28T02:29:03;5.07;;;4.20;;
2129;SDS011;1071;52.544;13.374;2023-02-28T02:31:52;4.80;;;3.92;;
2129;SDS011;1071;52.544;13.374;2023-02-28T02:34:40;5.70;;;5.00;;
2129;SDS011;1071;52.544;13.374;2023-02-28T02:37:18;6.75;;;4.55;;
2129;SDS011;1071;52.544;13.374;2023-02-28T02:39:58;6.25;;;4.60;;
2129;SDS011;1071;52.544;13.374;2023-02-28T02:42:31;5.10;;;4.53;;
2129;SDS011;1071;52.544;13.374;2023-02-28T02:45:06;6.38;;;4.50;;
2129;SDS011;1071;52.544;13.374;2023-02-28T02:47:41;5.05;;;4.53;;
2129;SDS011;1071;52.544;13.374;2023-02-28T02:50:14;5.13;;;4.45;;
2129;SDS011;1071;52.544;13.374;2023-02-28T02:52:44;5.85;;;5.25;;
2129;SDS011;1071;52.544;13.374;2023-02-28T02:55:15;6.22;;;4.70;;
2129;SDS011;1071;52.544;13.374;2023-02-28T02:57:45;5.85;;;4.53;;
2129;SDS011;1071;52.544;13.374;2023-02-28T03:00:14;7.13;;;4.55;;
2129;SDS011;1071;52.544;13.374;2023-02-28T03:02:43;5.32;;;4.80;;
2129;SDS011;1071;52.544;13.374;2023-02-28T03:05:17;6.63;;;5.05;;
2129;SDS011;1071;52.544;13.374;2023-02-28T03:07:47;4.20;;;3.80;;
2129;SDS011;1071;52.544;13.374;2023-02-28T03:10:25;7.55;;;4.75;;
2129;SDS011;1071;52.544;13.374;2023-02-28T03:15:56;6.07;;;4.82;;
2129;SDS011;1071;52.544;13.374;2023-02-28T03:18:32;5.40;;;4.40;;
2129;SDS011;1071;52.544;13.374;2023-02-28T03:21:09;5.93;;;5.32;;
2129;SDS011;1071;52.544;13.374;2023-02-28T03:23:45;7.47;;;4.53;;
2129;SDS011;1071;52.544;13.374;2023-02-28T03:26:21;6.47;;;5.47;;
2129;SDS011;1071;52.544;13.374;2023-02-28T03:28:52;7.07;;;4.85;;
2129;SDS011;1071;52.544;13.374;2023-02-28T03:31:23;6.00;;;5.40;;
2129;SDS011;1071;52.544;13.374;2023-02-28T03:33:55;8.65;;;5.90;;
2129;SDS011;1071;52.544;13.374;2023-02-28T03:36:30;7.65;;;4.90;;
2129;SDS011;1071;52.544;13.374;2023-02-28T03:39:09;6.50;;;5.30;;
2129;SDS011;1071;52.544;13.374;2023-02-28T03:41:41;5.53;;;5.03;;
2129;SDS011;1071;52.544;13.374;2023-02-28T03:44:13;5.60;;;4.80;;
2129;SDS011;1071;52.544;13.374;2023-02-28T03:46:45;5.18;;;4.68;;
2129;SDS011;1071;52.544;13.374;2023-02-28T03:49:19;7.85;;;5.68;;
2129;SDS011;1071;52.544;13.374;2023-02-28T03:51:50;7.47;;;5.68;;
2129;SDS011;1071;52.544;13.374;2023-02-28T03:54:19;7.13;;;5.20;;
2129;SDS011;1071;52.544;13.374;2023-02-28T03:56:58;7.85;;;5.07;;
2129;SDS011;1071;52.544;13.374;2023-02-28T03:59:32;5.78;;;5.28;;
2129;SDS011;1071;52.544;13.374;2023-02-28T04:02:03;6.43;;;4.97;;
2129;SDS011;1071;52.544;13.374;2023-02-28T04:04:30;9.85;;;5.60;;
2129;SDS011;1071;52.544;13.374;2023-02-28T04:07:05;6.25;;;5.65;;
2129;SDS011;1071;52.544;13.374;2023-02-28T04:09:35;6.07;;;5.15;;
2129;SDS011;1071;52.544;13.374;2023-02-28T04:12:02;8.43;;;5.80;;
2129;SDS011;1071;52.544;13.374;2023-02-28T04:14:29;6.60;;;5.78;;
2129;SDS011;1071;52.544;13.374;2023-02-28T04:16:56;6.50;;;5.00;;
2129;SDS011;1071;52.544;13.374;2023-02-28T04:19:23;8.25;;;5.88;;
2129;SDS011;1071;52.544;13.374;2023-02-28T04:21:51;5.60;;;5.10;;
2129;SDS011;1071;52.544;13.374;2023-02-28T04:24:21;6.63;;;6.03;;
2129;SDS011;1071;52.544;13.374;2023-02-28T04:26:50;6.00;;;5.40;;
2129;SDS011;1071;52.544;13.374;2023-02-28T04:29:19;7.68;;;5.95;;
2129;SDS011;1071;52.544;13.374;2023-02-28T04:31:48;5.53;;;5.05;;
2129;SDS011;1071;52.544;13.374;2023-02-28T04:34:16;7.15;;;5.95;;
2129;SDS011;1071;52.544;13.374;2023-02-28T04:36:44;9.50;;;5.38;;
2129;SDS011;1071;52.544;13.374;2023-02-28T04:39:14;7.03;;;5.70;;
2129;SDS011;1071;52.544;13.374;2023-02-28T04:41:44;8.07;;;5.93;;
2129;SDS011;1071;52.544;13.374;2023-02-28T04:44:12;6.20;;;5.60;;
2129;SDS011;1071;52.544;13.374;2023-02-28T04:46:39;6.72;;;5.82;;
2129;SDS011;1071;52.544;13.374;2023-02-28T04:49:09;7.78;;;6.30;;
2129;SDS011;1071;52.544;13.374;2023-02-28T04:51:37;7.90;;;7.13;;
2129;SDS011;1071;52.544;13.374;2023-02-28T04:54:05;11.70;;;8.68;;
2129;SDS011;1071;52.544;13.374;2023-02-28T04:56:33;11.55;;;6.78;;
2129;SDS011;1071;52.544;13.374;2023-02-28T04:59:01;7.55;;;6.70;;
2129;SDS011;1071;52.544;13.374;2023-02-28T05:01:29;10.68;;;7.40;;
2129;SDS011;1071;52.544;13.374;2023-02-28T05:04:00;9.75;;;8.52;;
2129;SDS011;1071;52.544;13.374;2023-02-28T05:06:29;11.95;;;9.05;;
2129;SDS011;1071;52.544;13.374;2023-02-28T05:08:58;11.40;;;9.05;;
2129;SDS011;1071;52.544;13.374;2023-02-28T05:11:26;9.85;;;7.38;;
2129;SDS011;1071;52.544;13.374;2023-02-28T05:13:59;10.38;;;8.40;;
2129;SDS011;1071;52.544;13.374;2023-02-28T05:16:28;9.73;;;7.47;;
2129;SDS011;1071;52.544;13.374;2023-02-28T05:18:56;9.00;;;6.57;;
2129;SDS011;1071;52.544;13.374;2023-02-28T05:21:24;8.82;;;7.93;;
2129;SDS011;1071;52.544;13.374;2023-02-28T05:23:53;14.50;;;8.38;;
2129;SDS011;1071;52.544;13.374;2023-02-28T05:26:22;7.47;;;6.55;;
2129;SDS011;1071;52.544;13.374;2023-02-28T05:28:49;8.60;;;7.05;;
2129;SDS011;1071;52.544;13.374;2023-02-28T05:31:17;8.48;;;6.90;;
2129;SDS011;1071;52.544;13.374;2023-02-28T05:33:44;9.45;;;6.80;;
2129;SDS011;1071;52.544;13.374;2023-02-28T05:36:11;9.60;;;7.18;;
2129;SDS011;1071;52.544;13.374;2023-02-28T05:38:38;8.07;;;6.40;;
2129;SDS011;1071;52.544;13.374;2023-02-28T05:41:06;8.75;;;6.85;;
2129;SDS011;1071;52.544;13.374;2023-02-28T05:43:34;7.10;;;6.40;;
2129;SDS011;1071;52.544;13.374;2023-02-28T05:46:05;10.05;;;6.97;;
2129;SDS011;1071;52.544;13.374;2023-02-28T05:48:36;10.85;;;7.03;;
2129;SDS011;1071;52.544;13.374;2023-02-28T05:51:04;13.70;;;8.90;;
2129;SDS011;1071;52.544;13.374;2023-02-28T05:53:32;10.90;;;7.38;;
2129;SDS011;1071;52.544;13.374;2023-02-28T05:55:59;9.13;;;7.95;;
2129;SDS011;1071;52.544;13.374;2023-02-28T05:58:27;11.23;;;7.90;;
2129;SDS011;1071;52.544;13.374;2023-02-28T06:00:55;10.35;;;8.02;;
2129;SDS011;1071;52.544;13.374;2023-02-28T06:03:23;14.80;;;7.20;;
2129;SDS011;1071;52.544;13.374;2023-02-28T06:05:51;7.80;;;6.82;;
2129;SDS011;1071;52.544;13.374;2023-02-28T06:08:18;10.45;;;8.35;;
2129;SDS011;1071;52.544;13.374;2023-02-28T06:10:45;11.70;;;8.32;;
2129;SDS011;1071;52.544;13.374;2023-02-28T06:13:12;10.52;;;7.60;;
2129;SDS011;1071;52.544;13.374;2023-02-28T06:15:40;12.60;;;8.35;;
2129;SDS011;1071;52.544;13.374;2023-02-28T06:18:07;12.50;;;7.70;;
2129;SDS011;1071;52.544;13.374;2023-02-28T06:20:34;9.10;;;8.15;;
2129;SDS011;1071;52.544;13.374;2023-02-28T06:23:02;12.93;;;8.95;;
2129;SDS011;1071;52.544;13.374;2023-02-28T06:25:29;15.43;;;10.23;;
2129;SDS011;1071;52.544;13.374;2023-02-28T06:27:56;16.70;;;11.20;;
2129;SDS011;1071;52.544;13.374;2023-02-28T06:30:23;19.45;;;13.82;;
2129;SDS011;1071;52.544;13.374;2023-02-28T06:32:53;20.35;;;12.38;;
2129;SDS011;1071;52.544;13.374;2023-02-28T06:35:20;15.85;;;11.55;;
2129;SDS011;1071;52.544;13.374;2023-02-28T06:37:48;19.75;;;13.57;;
2129;SDS011;1071;52.544;13.374;2023-02-28T06:40:16;18.48;;;12.50;;
2129;SDS011;1071;52.544;13.374;2023-02-28T06:42:43;20.08;;;13.32;;
2129;SDS011;1071;52.544;13.374;2023-02-28T06:45:10;21.02;;;13.52;;
2129;SDS011;1071;52.544;13.374;2023-02-28T06:47:39;20.52;;;14.15;;
2129;SDS011;1071;52.544;13.374;2023-02-28T06:50:09;18.92;;;14.30;;
2129;SDS011;1071;52.544;13.374;2023-02-28T06:52:38;23.30;;;13.77;;
2129;SDS011;1071;52.544;13.374;2023-02-28T06:55:06;24.63;;;14.68;;
2129;SDS011;1071;52.544;13.374;2023-02-28T06:57:35;26.25;;;15.55;;
2129;SDS011;1071;52.544;13.374;2023-02-28T07:00:04;25.05;;;16.00;;
2129;SDS011;1071;52.544;13.374;2023-02-28T07:02:33;25.58;;;16.02;;
2129;SDS011;1071;52.544;13.374;2023-02-28T07:05:00;23.25;;;15.43;;
2129;SDS011;1071;52.544;13.374;2023-02-28T07:07:27;19.10;;;13.75;;
2129;SDS011;1071;52.544;13.374;2023-02-28T07:09:57;21.40;;;12.73;;
2129;SDS011;1071;52.544;13.374;2023-02-28T07:12:24;19.83;;;12.95;;
2129;SDS011;1071;52.544;13.374;2023-02-28T07:14:52;20.75;;;11.95;;
2129;SDS011;1071;52.544;13.374;2023-02-28T07:17:20;19.60;;;12.30;;
2129;SDS011;1071;52.544;13.374;2023-02-28T07:19:47;15.73;;;11.68;;
2129;SDS011;1071;52.544;13.374;2023-02-28T07:22:14;17.05;;;12.40;;
2129;SDS011;1071;52.544;13.374;2023-02-28T07:24:41;12.10;;;9.63;;
2129;SDS011;1071;52.544;13.374;2023-02-28T07:27:09;14.98;;;10.65;;
2129;SDS011;1071;52.544;13.374;2023-02-28T07:29:35;15.38;;;10.85;;
2129;SDS011;1071;52.544;13.374;2023-02-28T07:32:04;16.33;;;11.20;;
2129;SDS011;1071;52.544;13.374;2023-02-28T07:34:31;12.10;;;9.40;;
2129;SDS011;1071;52.544;13.374;2023-02-28T07:37:01;10.68;;;8.88;;
2129;SDS011;1071;52.544;13.374;2023-02-28T07:39:30;14.95;;;9.65;;
2129;SDS011;1071;52.544;13.374;2023-02-28T07:41:57;14.20;;;9.30;;
2129;SDS011;1071;52.544;13.374;2023-02-28T07:44:25;10.93;;;9.75;;
2129;SDS011;1071;52.544;13.374;2023-02-28T07:46:52;12.07;;;9.32;;
2129;SDS011;1071;52.544;13.374;2023-02-28T07:49:23;10.07;;;8.95;;
2129;SDS011;1071;52.544;13.374;2023-02-28T07:51:50;12.00;;;9.32;;
2129;SDS011;1071;52.544;13.374;2023-02-28T07:54:18;9.60;;;8.18;;
2129;SDS011;1071;52.544;13.374;2023-02-28T07:56:45;11.95;;;9.10;;
2129;SDS011;1071;52.544;13.374;2023-02-28T07:59:14;10.88;;;9.73;;
2129;SDS011;1071;52.544;13.374;2023-02-28T08:01:41;10.07;;;8.00;;
2129;SDS011;1071;52.544;13.374;2023-02-28T08:04:09;11.80;;;8.90;;
2129;SDS011;1071;52.544;13.374;2023-02-28T08:06:37;10.80;;;7.70;;
2129;SDS011;1071;52.544;13.374;2023-02-28T08:09:06;11.07;;;8.02;;
2129;SDS011;1071;52.544;13.374;2023-02-28T08:11:33;9.50;;;7.53;;
2129;SDS011;1071;52.544;13.374;2023-02-28T08:14:03;9.13;;;6.57;;
2129;SDS011;1071;52.544;13.374;2023-02-28T08:16:33;7.82;;;6.03;;
2129;SDS011;1071;52.544;13.374;2023-02-28T08:19:02;8.45;;;6.38;;
2129;SDS011;1071;52.544;13.374;2023-02-28T08:21:29;10.02;;;6.65;;
2129;SDS011;1071;52.544;13.374;2023-02-28T08:23:57;7.43;;;6.70;;
2129;SDS011;1071;52.544;13.374;2023-02-28T08:26:28;7.97;;;5.60;;
2129;SDS011;1071;52.544;13.374;2023-02-28T08:28:54;8.15;;;5.90;;
2129;SDS011;1071;52.544;13.374;2023-02-28T08:31:27;7.88;;;6.13;;
2129;SDS011;1071;52.544;13.374;2023-02-28T08:33:54;5.70;;;5.10;;
2129;SDS011;1071;52.544;13.374;2023-02-28T08:36:25;4.80;;;3.65;;
2129;SDS011;1071;52.544;13.374;2023-02-28T08:38:54;7.70;;;3.80;;
2129;SDS011;1071;52.544;13.374;2023-02-28T08:41:22;4.88;;;3.55;;
2129;SDS011;1071;52.544;13.374;2023-02-28T08:43:52;5.00;;;3.58;;
2129;SDS011;1071;52.544;13.374;2023-02-28T08:46:20;5.35;;;3.33;;
2129;SDS011;1071;52.544;13.374;2023-02-28T08:48:47;4.13;;;3.22;;
2129;SDS011;1071;52.544;13.374;2023-02-28T08:51:17;4.70;;;2.63;;
2129;SDS011;1071;52.544;13.374;2023-02-28T08:53:50;3.17;;;2.53;;
2129;SDS011;1071;52.544;13.374;2023-02-28T08:56:19;4.68;;;2.90;;
2129;SDS011;1071;52.544;13.374;2023-02-28T08:58:48;3.53;;;2.65;;
2129;SDS011;1071;52.544;13.374;2023-02-28T09:01:16;3.95;;;2.60;;
2129;SDS011;1071;52.544;13.374;2023-02-28T09:03:45;3.75;;;2.83;;
2129;SDS011;1071;52.544;13.374;2023-02-28T09:06:13;4.13;;;2.80;;
2129;SDS011;1071;52.544;13.374;2023-02-28T09:08:50;4.60;;;2.85;;
2129;SDS011;1071;52.544;13.374;2023-02-28T09:11:18;5.20;;;3.67;;
2129;SDS011;1071;52.544;13.374;2023-02-28T09:13:45;7.03;;;4.43;;
2129;SDS011;1071;52.544;13.374;2023-02-28T09:16:17;2.50;;;2.25;;
2129;SDS011;1071;52.544;13.374;2023-02-28T09:18:44;4.13;;;3.15;;
2129;SDS011;1071;52.544;13.374;2023-02-28T09:21:13;5.13;;;3.33;;
2129;SDS011;1071;52.544;13.374;2023-02-28T09:23:44;3.22;;;2.05;;
2129;SDS011;1071;52.544;13.374;2023-02-28T09:26:14;2.72;;;2.20;;
2129;SDS011;1071;52.544;13.374;2023-02-28T09:28:41;2.92;;;1.92;;
2129;SDS011;1071;52.544;13.374;2023-02-28T09:31:12;3.15;;;2.05;;
2129;SDS011;1071;52.544;13.374;2023-02-28T09:33:40;2.30;;;2.00;;
2129;SDS011;1071;52.544;13.374;2023-02-28T09:36:10;2.40;;;2.00;;
2129;SDS011;1071;52.544;13.374;2023-02-28T09:38:37;4.10;;;2.05;;
2129;SDS011;1071;52.544;13.374;2023-02-28T09:41:13;3.22;;;2.53;;
2129;SDS011;1071;52.544;13.374;2023-02-28T09:43:44;3.85;;;2.17;;
2129;SDS011;1071;52.544;13.374;2023-02-28T09:46:21;3.28;;;2.35;;
2129;SDS011;1071;52.544;13.374;2023-02-28T09:48:58;2.65;;;2.42;;
2129;SDS011;1071;52.544;13.374;2023-02-28T09:51:33;2.70;;;2.40;;
2129;SDS011;1071;52.544;13.374;2023-02-28T09:54:10;2.00;;;1.80;;
2129;SDS011;1071;52.544;13.374;2023-02-28T09:56:44;3.65;;;2.55;;
2129;SDS011;1071;52.544;13.374;2023-02-28T09:59:15;4.00;;;2.45;;
2129;SDS011;1071;52.544;13.374;2023-02-28T10:01:50;3.35;;;2.20;;
2129;SDS011;1071;52.544;13.374;2023-02-28T10:04:29;3.00;;;1.80;;
2129;SDS011;1071;52.544;13.374;2023-02-28T10:07:14;2.15;;;1.83;;
2129;SDS011;1071;52.544;13.374;2023-02-28T10:09:51;2.40;;;2.13;;
2129;SDS011;1071;52.544;13.374;2023-02-28T10:12:21;2.42;;;2.22;;
2129;SDS011;1071;52.544;13.374;2023-02-28T10:15:25;3.60;;;2.20;;
2129;SDS011;1071;52.544;13.374;2023-02-28T10:17:58;2.45;;;2.10;;
2129;SDS011;1071;52.544;13.374;2023-02-28T10:20:28;2.95;;;2.22;;
2129;SDS011;1071;52.544;13.374;2023-02-28T10:23:00;3.22;;;2.45;;
2129;SDS011;1071;52.544;13.374;2023-02-28T10:25:33;2.60;;;2.40;;
2129;SDS011;1071;52.544;13.374;2023-02-28T10:28:05;2.80;;;2.17;;
2129;SDS011;1071;52.544;13.374;2023-02-28T10:30:37;4.00;;;2.85;;
2129;SDS011;1071;52.544;13.374;2023-02-28T10:33:16;4.25;;;2.75;;
2129;SDS011;1071;52.544;13.374;2023-02-28T10:35:47;2.45;;;2.25;;
2129;SDS011;1071;52.544;13.374;2023-02-28T10:38:16;2.33;;;2.13;;
2129;SDS011;1071;52.544;13.374;2023-02-28T10:40:45;2.50;;;2.00;;
2129;SDS011;1071;52.544;13.374;2023-02-28T10:43:20;3.90;;;2.40;;
2129;SDS011;1071;52.544;13.374;2023-02-28T10:45:53;2.40;;;2.20;;
2129;SDS011;1071;52.544;13.374;2023-02-28T10:48:29;2.72;;;2.03;;
2129;SDS011;1071;52.544;13.374;2023-02-28T10:51:00;2.03;;;1.80;;
2129;SDS011;1071;52.544;13.374;2023-02-28T10:53:30;4.60;;;2.42;;
2129;SDS011;1071;52.544;13.374;2023-02-28T10:56:00;2.97;;;2.58;;
2129;SDS011;1071;52.544;13.374;2023-02-28T10:58:29;2.10;;;1.90;;
2129;SDS011;1071;52.544;13.374;2023-02-28T11:00:58;2.75;;;2.47;;
2129;SDS011;1071;52.544;13.374;2023-02-28T11:03:32;2.83;;;2.60;;
2129;SDS011;1071;52.544;13.374;2023-02-28T11:06:04;2.95;;;2.13;;
2129;SDS011;1071;52.544;13.374;2023-02-28T11:08:42;2.67;;;1.98;;
2129;SDS011;1071;52.544;13.374;2023-02-28T11:11:12;3.35;;;1.98;;
2129;SDS011;1071;52.544;13.374;2023-02-28T11:13:40;2.75;;;2.13;;
2129;SDS011;1071;52.544;13.374;2023-02-28T11:16:09;2.38;;;2.15;;
2129;SDS011;1071;52.544;13.374;2023-02-28T11:18:40;2.92;;;1.80;;
2129;SDS011;1071;52.544;13.374;2023-02-28T11:24:49;2.03;;;1.83;;
2129;SDS011;1071;52.544;13.374;2023-02-28T11:27:26;2.95;;;2.17;;
2129;SDS011;1071;52.544;13.374;2023-02-28T11:30:25;2.65;;;2.45;;
2129;SDS011;1071;52.544;13.374;2023-02-28T11:32:55;5.07;;;2.03;;
2129;SDS011;1071;52.544;13.374;2023-02-28T11:35:24;3.08;;;2.22;;
2129;SDS011;1071;52.544;13.374;2023-02-28T11:37:54;3.50;;;2.50;;
2129;SDS011;1071;52.544;13.374;2023-02-28T11:40:24;4.65;;;3.20;;
2129;SDS011;1071;52.544;13.374;2023-02-28T11:42:59;2.85;;;2.65;;
2129;SDS011;1071;52.544;13.374;2023-02-28T11:45:37;2.80;;;2.60;;
2129;SDS011;1071;52.544;13.374;2023-02-28T11:48:22;4.85;;;2.60;;
2129;SDS011;1071;52.544;13.374;2023-02-28T11:50:57;3.25;;;2.08;;
2129;SDS011;1071;52.544;13.374;2023-02-28T11:53:35;3.58;;;2.40;;
2129;SDS011;1071;52.544;13.374;2023-02-28T11:56:18;3.10;;;2.60;;
2129;SDS011;1071;52.544;13.374;2023-02-28T11:58:52;5.97;;;2.90;;
2129;SDS011;1071;52.544;13.374;2023-02-28T12:01:33;2.75;;;2.50;;
2129;SDS011;1071;52.544;13.374;2023-02-28T12:04:18;3.65;;;2.55;;
2129;SDS011;1071;52.544;13.374;2023-02-28T12:06:55;3.17;;;2.42;;
2129;SDS011;1071;52.544;13.374;2023-02-28T12:09:37;3.30;;;3.00;;
2129;SDS011;1071;52.544;13.374;2023-02-28T12:12:17;3.00;;;2.80;;
2129;SDS011;1071;52.544;13.374;2023-02-28T12:14:59;2.83;;;2.55;;
2129;SDS011;1071;52.544;13.374;2023-02-28T12:17:46;3.08;;;2.83;;
2129;SDS011;1071;52.544;13.374;2023-02-28T12:20:23;3.13;;;2.90;;
2129;SDS011;1071;52.544;13.374;2023-02-28T12:22:57;3.55;;;2.78;;
2129;SDS011;1071;52.544;13.374;2023-02-28T12:28:30;5.40;;;4.90;;
2129;SDS011;1071;52.544;13.374;2023-02-28T12:31:01;3.80;;;3.50;;
2129;SDS011;1071;52.544;13.374;2023-02-28T12:33:36;3.95;;;3.55;;
2129;SDS011;1071;52.544;13.374;2023-02-28T12:36:09;4.13;;;3.10;;
2129;SDS011;1071;52.544;13.374;2023-02-28T12:38:45;3.35;;;2.70;;
2129;SDS011;1071;52.544;13.374;2023-02-28T12:41:16;3.22;;;2.75;;
2129;SDS011;1071;52.544;13.374;2023-02-28T12:43:46;3.58;;;3.17;;
2129;SDS011;1071;52.544;13.374;2023-02-28T12:46:17;7.35;;;3.60;;
2129;SDS011;1071;52.544;13.374;2023-02-28T12:48:52;5.57;;;3.65;;
2129;SDS011;1071;52.544;13.374;2023-02-28T12:51:22;4.07;;;2.75;;
2129;SDS011;1071;52.544;13.374;2023-02-28T12:53:57;5.75;;;3.25;;
2129;SDS011;1071;52.544;13.374;2023-02-28T12:56:36;3.85;;;3.17;;
2129;SDS011;1071;52.544;13.374;2023-02-28T12:59:11;3.20;;;2.90;;
2129;SDS011;1071;52.544;13.374;2023-02-28T13:02:09;3.03;;;2.83;;
2129;SDS011;1071;52.544;13.374;2023-02-28T13:05:00;2.65;;;2.28;;
2129;SDS011;1071;52.544;13.374;2023-02-28T13:07:47;2.80;;;2.40;;
2129;SDS011;1071;52.544;13.374;2023-02-28T13:10:42;3.20;;;2.88;;
2129;SDS011;1071;52.544;13.374;2023-02-28T13:13:17;4.20;;;3.30;;
2129;SDS011;1071;52.544;13.374;2023-02-28T13:15:57;5.65;;;3.55;;
2129;SDS011;1071;52.544;13.374;2023-02-28T13:18:27;3.55;;;2.90;;
2129;SDS011;1071;52.544;13.374;2023-02-28T13:20:56;5.57;;;2.90;;
2129;SDS011;1071;52.544;13.374;2023-02-28T13:23:38;4.05;;;3.10;;
2129;SDS011;1071;52.544;13.374;2023-02-28T13:26:24;5.00;;;2.60;;
2129;SDS011;1071;52.544;13.374;2023-02-28T13:29:30;3.00;;;2.70;;
2129;SDS011;1071;52.544;13.374;2023-02-28T13:38:17;4.40;;;2.67;;
2129;SDS011;1071;52.544;13.374;2023-02-28T13:44:02;3.25;;;2.95;;
2129;SDS011;1071;52.544;13.374;2023-02-28T13:46:34;3.40;;;3.10;;
2129;SDS011;1071;52.544;13.374;2023-02-28T13:49:19;4.70;;;2.95;;
2129;SDS011;1071;52.544;13.374;2023-02-28T13:51:47;3.35;;;2.60;;
2129;SDS011;1071;52.544;13.374;2023-02-28T13:54:24;5.53;;;3.40;;
2129;SDS011;1071;52.544;13.374;2023-02-28T13:57:10;3.17;;;2.88;;
2129;SDS011;1071;52.544;13.374;2023-02-28T13:59:49;3.20;;;2.90;;
2129;SDS011;1071;52.544;13.374;2023-02-28T14:02:29;3.03;;;2.72;;
2129;SDS011;1071;52.544;13.374;2023-02-28T14:05:19;3.83;;;3.35;;
2129;SDS011;1071;52.544;13.374;2023-02-28T14:07:52;4.97;;;2.70;;
2129;SDS011;1071;52.544;13.374;2023-02-28T14:10:26;7.13;;;4.25;;
2129;SDS011;1071;52.544;13.374;2023-02-28T14:12:59;3.22;;;2.90;;
2129;SDS011;1071;52.544;13.374;2023-02-28T14:15:43;4.75;;;3.58;;
2129;SDS011;1071;52.544;13.374;2023-02-28T14:18:18;5.57;;;3.72;;
2129;SDS011;1071;52.544;13.374;2023-02-28T14:20:52;4.30;;;3.90;;
2129;SDS011;1071;52.544;13.374;2023-02-28T14:23:26;4.85;;;4.35;;
2129;SDS011;1071;52.544;13.374;2023-02-28T14:26:06;5.30;;;3.53;;
2129;SDS011;1071;52.544;13.374;2023-02-28T14:28:47;5.55;;;3.35;;
2129;SDS011;1071;52.544;13.374;2023-02-28T14:31:29;4.85;;;3.78;;
2129;SDS011;1071;52.544;13.374;2023-02-28T14:34:11;3.35;;;2.75;;
2129;SDS011;1071;52.544;13.374;2023-02-28T14:36:48;4.20;;;2.80;;
2129;SDS011;1071;52.544;13.374;2023-02-28T14:39:21;2.83;;;2.50;;
2129;SDS011;1071;52.544;13.374;2023-02-28T14:41:50;3.70;;;2.78;;
2129;SDS011;1071;52.544;13.374;2023-02-28T14:44:18;4.60;;;3.47;;
2129;SDS011;1071;52.544;13.374;2023-02-28T14:46:49;3.85;;;3.50;;
2129;SDS011;1071;52.544;13.374;2023-02-28T14:49:19;5.22;;;3.00;;
2129;SDS011;1071;52.544;13.374;2023-02-28T14:51:48;2.80;;;2.60;;
2129;SDS011;1071;52.544;13.374;2023-02-28T14:54:17;3.45;;;2.85;;
2129;SDS011;1071;52.544;13.374;2023-02-28T14:56:49;3.55;;;2.95;;
2129;SDS011;1071;52.544;13.374;2023-02-28T14:59:23;3.58;;;2.60;;
2129;SDS011;1071;52.544;13.374;2023-02-28T15:01:54;3.63;;;3.28;;
2129;SDS011;1071;52.544;13.374;2023-02-28T15:04:41;3.60;;;2.78;;
2129;SDS011;1071;52.544;13.374;2023-02-28T15:07:09;3.67;;;3.38;;
2129;SDS011;1071;52.544;13.374;2023-02-28T15:09:37;3.70;;;3.40;;
2129;SDS011;1071;52.544;13.374;2023-02-28T15:12:05;5.20;;;3.63;;
2129;SDS011;1071;52.544;13.374;2023-02-28T15:14:32;2.92;;;2.70;;
2129;SDS011;1071;52.544;13.374;2023-02-28T15:17:05;4.15;;;2.92;;
2129;SDS011;1071;52.544;13.374;2023-02-28T15:19:41;6.20;;;3.35;;
2129;SDS011;1071;52.544;13.374;2023-02-28T15:22:12;4.85;;;3.20;;
2129;SDS011;1071;52.544;13.374;2023-02-28T15:24:42;3.60;;;3.30;;
2129;SDS011;1071;52.544;13.374;2023-02-28T15:27:16;2.70;;;2.50;;
2129;SDS011;1071;52.544;13.374;2023-02-28T15:29:48;3.65;;;3.35;;
2129;SDS011;1071;52.544;13.374;2023-02-28T15:32:25;6.75;;;4.68;;
2129;SDS011;1071;52.544;13.374;2023-02-28T15:34:55;4.60;;;3.80;;
2129;SDS011;1071;52.544;13.374;2023-02-28T15:37:26;3.97;;;2.88;;
2129;SDS011;1071;52.544;13.374;2023-02-28T15:39:56;5.22;;;3.03;;
2129;SDS011;1071;52.544;13.374;2023-02-28T15:42:30;2.97;;;2.67;;
2129;SDS011;1071;52.544;13.374;2023-02-28T15:44:57;3.15;;;2.85;;
2129;SDS011;1071;52.544;13.374;2023-02-28T15:47:28;4.90;;;4.50;;
2129;SDS011;1071;52.544;13.374;2023-02-28T15:49:57;4.00;;;3.10;;